sensor_id;sensor_type;location;lat;lon;timestamp;pressure;altitude;pressure_sealevel;temperature;humidity
12146;BME280;6136;47.032;15.398;2023-02-18T00:01:36;98010.75;;;4.90;100.00
12146;BME280;6136;47.032;15.398;2023-02-18T00:04:04;98007.13;;;4.94;100.00
12146;BME280;6136;47.032;15.398;2023-02-18T00:06:34;98012.59;;;4.88;100.00
12146;BME280;6136;47.032;15.398;2023-02-18T00:09:04;98010.94;;;4.84;100.00
12146;BME280;6136;47.032;15.398;2023-02-18T00:11:35;98010.13;;;4.82;100.00
12146;BME280;6136;47.032;15.398;2023-02-18T00:14:05;98005.66;;;4.86;100.00
12146;BME280;6136;47.032;15.398;2023-02-18T00:16:34;98007.50;;;4.82;100.00
12146;BME280;6136;47.032;15.398;2023-02-18T00:19:04;98011.97;;;4.80;100.00
12146;BME280;6136;47.032;15.398;2023-02-18T00:21:34;98005.03;;;4.78;100.00
12146;BME280;6136;47.032;15.398;2023-02-18T00:24:02;98007.75;;;4.75;100.00
12146;BME280;6136;47.032;15.398;2023-02-18T00:26:31;98009.69;;;4.69;100.00
12146;BME280;6136;47.032;15.398;2023-02-18T00:29:01;98005.50;;;4.64;100.00
12146;BME280;6136;47.032;15.398;2023-02-18T00:31:31;98016.66;;;4.71;100.00
12146;BME280;6136;47.032;15.398;2023-02-18T00:34:01;98017.72;;;4.65;100.00
12146;BME280;6136;47.032;15.398;2023-02-18T00:36:31;98015.88;;;4.67;100.00
12146;BME280;6136;47.032;15.398;2023-02-18T00:39:02;98023.81;;;4.65;100.00
12146;BME280;6136;47.032;15.398;2023-02-18T00:41:32;98017.75;;;4.63;100.00
12146;BME280;6136;47.032;15.398;2023-02-18T00:44:03;98013.31;;;4.65;100.00
12146;BME280;6136;47.032;15.398;2023-02-18T00:46:33;98017.78;;;4.62;100.00
12146;BME280;6136;47.032;15.398;2023-02-18T00:49:02;98012.75;;;4.56;100.00
12146;BME280;6136;47.032;15.398;2023-02-18T00:51:30;98025.63;;;4.63;100.00
12146;BME280;6136;47.032;15.398;2023-02-18T00:53:59;98012.66;;;4.59;100.00
12146;BME280;6136;47.032;15.398;2023-02-18T00:56:30;98027.59;;;4.57;100.00
12146;BME280;6136;47.032;15.398;2023-02-18T00:58:59;98029.44;;;4.53;100.00
12146;BME280;6136;47.032;15.398;2023-02-18T01:01:28;98015.56;;;4.50;100.00
12146;BME280;6136;47.032;15.398;2023-02-18T01:03:57;98014.81;;;4.45;100.00
12146;BME280;6136;47.032;15.398;2023-02-18T01:06:25;98007.56;;;4.53;100.00
12146;BME280;6136;47.032;15.398;2023-02-18T01:08:53;98009.44;;;4.49;100.00
12146;BME280;6136;47.032;15.398;2023-02-18T01:11:21;98011.22;;;4.49;100.00
12146;BME280;6136;47.032;15.398;2023-02-18T01:13:50;98013.13;;;4.44;100.00
12146;BME280;6136;47.032;15.398;2023-02-18T01:16:18;98014.81;;;4.45;100.00
12146;BME280;6136;47.032;15.398;2023-02-18T01:18:48;98010.56;;;4.42;100.00
12146;BME280;6136;47.032;15.398;2023-02-18T01:21:16;98013.28;;;4.38;100.00
12146;BME280;6136;47.032;15.398;2023-02-18T01:23:44;98009.97;;;4.33;100.00
12146;BME280;6136;47.032;15.398;2023-02-18T01:26:14;98019.56;;;4.34;100.00
12146;BME280;6136;47.032;15.398;2023-02-18T01:28:43;98023.78;;;4.38;100.00
12146;BME280;6136;47.032;15.398;2023-02-18T01:31:12;97999.66;;;4.26;100.00
12146;BME280;6136;47.032;15.398;2023-02-18T01:33:41;98012.50;;;4.36;100.00
12146;BME280;6136;47.032;15.398;2023-02-18T01:36:11;98012.41;;;4.39;100.00
12146;BME280;6136;47.032;15.398;2023-02-18T01:38:40;98018.03;;;4.26;100.00
12146;BME280;6136;47.032;15.398;2023-02-18T01:41:09;98011.09;;;4.24;100.00
12146;BME280;6136;47.032;15.398;2023-02-18T01:43:37;98026.06;;;4.20;100.00
12146;BME280;6136;47.032;15.398;2023-02-18T01:46:16;98015.63;;;4.19;100.00
12146;BME280;6136;47.032;15.398;2023-02-18T01:48:49;98008.63;;;4.19;100.00
12146;BME280;6136;47.032;15.398;2023-02-18T01:51:21;98004.47;;;4.12;100.00
12146;BME280;6136;47.032;15.398;2023-02-18T01:53:54;98004.56;;;4.08;100.00
12146;BME280;6136;47.032;15.398;2023-02-18T01:56:27;97999.44;;;4.05;100.00
12146;BME280;6136;47.032;15.398;2023-02-18T01:58:57;98004.69;;;4.05;100.00
12146;BME280;6136;47.032;15.398;2023-02-18T02:01:27;98003.00;;;4.02;100.00
12146;BME280;6136;47.032;15.398;2023-02-18T02:03:56;97995.91;;;4.06;100.00
12146;BME280;6136;47.032;15.398;2023-02-18T02:06:25;97990.66;;;4.06;100.00
12146;BME280;6136;47.032;15.398;2023-02-18T02:08:56;97990.06;;;3.96;100.00
12146;BME280;6136;47.032;15.398;2023-02-18T02:11:38;97995.25;;;3.99;100.00
12146;BME280;6136;47.032;15.398;2023-02-18T02:14:28;97994.38;;;3.99;100.00
12146;BME280;6136;47.032;15.398;2023-02-18T02:17:04;97996.25;;;3.94;100.00
12146;BME280;6136;47.032;15.398;2023-02-18T02:20:14;97990.00;;;3.99;100.00
12146;BME280;6136;47.032;15.398;2023-02-18T02:26:20;97981.56;;;3.88;100.00
12146;BME280;6136;47.032;15.398;2023-02-18T02:29:09;97973.09;;;3.78;100.00
12146;BME280;6136;47.032;15.398;2023-02-18T02:32:02;97972.09;;;3.84;100.00
12146;BME280;6136;47.032;15.398;2023-02-18T02:34:46;97973.06;;;3.80;100.00
12146;BME280;6136;47.032;15.398;2023-02-18T02:37:24;97968.69;;;3.80;100.00
12146;BME280;6136;47.032;15.398;2023-02-18T02:40:03;97964.47;;;3.75;100.00
12146;BME280;6136;47.032;15.398;2023-02-18T02:42:42;97966.09;;;3.79;100.00
12146;BME280;6136;47.032;15.398;2023-02-18T02:45:20;97964.53;;;3.73;100.00
12146;BME280;6136;47.032;15.398;2023-02-18T02:47:56;97965.47;;;3.71;100.00
12146;BME280;6136;47.032;15.398;2023-02-18T02:50:36;97969.00;;;3.70;100.00
12146;BME280;6136;47.032;15.398;2023-02-18T02:53:13;97956.06;;;3.64;100.00
12146;BME280;6136;47.032;15.398;2023-02-18T02:55:42;97969.25;;;3.61;100.00
12146;BME280;6136;47.032;15.398;2023-02-18T02:58:13;97955.25;;;3.62;100.00
12146;BME280;6136;47.032;15.398;2023-02-18T03:00:54;97952.72;;;3.59;100.00
12146;BME280;6136;47.032;15.398;2023-02-18T03:03:48;97944.81;;;3.60;100.00
12146;BME280;6136;47.032;15.398;2023-02-18T03:06:36;97955.44;;;3.56;100.00
12146;BME280;6136;47.032;15.398;2023-02-18T03:09:11;97955.44;;;3.56;100.00
12146;BME280;6136;47.032;15.398;2023-02-18T03:11:48;97942.34;;;3.56;100.00
12146;BME280;6136;47.032;15.398;2023-02-18T03:14:26;97946.72;;;3.55;100.00
12146;BME280;6136;47.032;15.398;2023-02-18T03:16:58;97961.50;;;3.56;100.00
12146;BME280;6136;47.032;15.398;2023-02-18T03:19:32;97961.56;;;3.55;100.00
12146;BME280;6136;47.032;15.398;2023-02-18T03:22:06;97955.47;;;3.54;100.00
12146;BME280;6136;47.032;15.398;2023-02-18T03:24:38;97969.59;;;3.48;100.00
12146;BME280;6136;47.032;15.398;2023-02-18T03:27:11;97973.00;;;3.52;100.00
12146;BME280;6136;47.032;15.398;2023-02-18T03:29:43;97987.88;;;3.50;100.00
12146;BME280;6136;47.032;15.398;2023-02-18T03:32:16;97971.88;;;3.61;100.00
12146;BME280;6136;47.032;15.398;2023-02-18T03:34:50;97969.97;;;3.66;100.00
12146;BME280;6136;47.032;15.398;2023-02-18T03:37:21;97951.16;;;3.82;100.00
12146;BME280;6136;47.032;15.398;2023-02-18T03:39:54;97957.00;;;3.92;100.00
12146;BME280;6136;47.032;15.398;2023-02-18T03:42:25;97946.59;;;3.89;100.00
12146;BME280;6136;47.032;15.398;2023-02-18T03:44:54;97954.38;;;3.92;100.00
12146;BME280;6136;47.032;15.398;2023-02-18T03:47:23;97950.81;;;3.93;100.00
12146;BME280;6136;47.032;15.398;2023-02-18T03:49:51;97961.28;;;3.95;100.00
12146;BME280;6136;47.032;15.398;2023-02-18T03:52:20;97971.00;;;3.91;100.00
12146;BME280;6136;47.032;15.398;2023-02-18T03:54:49;97965.75;;;3.91;100.00
12146;BME280;6136;47.032;15.398;2023-02-18T03:57:18;97963.03;;;3.94;100.00
12146;BME280;6136;47.032;15.398;2023-02-18T03:59:46;97968.19;;;3.97;100.00
12146;BME280;6136;47.032;15.398;2023-02-18T04:02:14;97967.38;;;3.95;100.00
12146;BME280;6136;47.032;15.398;2023-02-18T04:04:42;97958.22;;;4.08;100.00
12146;BME280;6136;47.032;15.398;2023-02-18T04:07:10;97976.59;;;4.08;100.00
12146;BME280;6136;47.032;15.398;2023-02-18T04:09:40;97977.38;;;4.12;100.00
12146;BME280;6136;47.032;15.398;2023-02-18T04:12:08;97979.13;;;4.11;100.00
12146;BME280;6136;47.032;15.398;2023-02-18T04:14:36;97974.66;;;4.15;100.00
12146;BME280;6136;47.032;15.398;2023-02-18T04:17:04;97982.38;;;4.19;100.00
12146;BME280;6136;47.032;15.398;2023-02-18T04:19:32;97989.31;;;4.22;100.00
12146;BME280;6136;47.032;15.398;2023-02-18T04:22:01;97969.31;;;4.18;100.00
12146;BME280;6136;47.032;15.398;2023-02-18T04:24:29;97963.31;;;4.14;100.00
12146;BME280;6136;47.032;15.398;2023-02-18T04:26:58;97959.88;;;4.12;100.00
12146;BME280;6136;47.032;15.398;2023-02-18T04:29:26;97965.00;;;4.15;100.00
12146;BME280;6136;47.032;15.398;2023-02-18T04:31:55;97970.25;;;4.15;100.00
12146;BME280;6136;47.032;15.398;2023-02-18T04:34:23;97956.16;;;4.19;100.00
12146;BME280;6136;47.032;15.398;2023-02-18T04:36:51;97957.03;;;4.20;100.00
12146;BME280;6136;47.032;15.398;2023-02-18T04:39:19;97964.06;;;4.18;100.00
12146;BME280;6136;47.032;15.398;2023-02-18T04:41:47;97962.22;;;4.21;100.00
12146;BME280;6136;47.032;15.398;2023-02-18T04:44:17;97964.72;;;4.24;100.00
12146;BME280;6136;47.032;15.398;2023-02-18T04:46:45;97969.16;;;4.22;100.00
12146;BME280;6136;47.032;15.398;2023-02-18T04:49:13;97954.16;;;4.27;100.00
12146;BME280;6136;47.032;15.398;2023-02-18T04:51:41;97959.50;;;4.24;100.00
12146;BME280;6136;47.032;15.398;2023-02-18T04:54:09;97961.28;;;4.22;100.00
12146;BME280;6136;47.032;15.398;2023-02-18T04:56:38;97954.28;;;4.23;100.00
12146;BME280;6136;47.032;15.398;2023-02-18T04:59:06;97968.38;;;4.20;100.00
12146;BME280;6136;47.032;15.398;2023-02-18T05:01:35;97958.75;;;4.21;100.00
12146;BME280;6136;47.032;15.398;2023-02-18T05:04:03;97948.44;;;4.15;100.00
12146;BME280;6136;47.032;15.398;2023-02-18T05:06:32;97952.75;;;4.16;100.00
12146;BME280;6136;47.032;15.398;2023-02-18T05:09:00;97963.31;;;4.14;100.00
12146;BME280;6136;47.032;15.398;2023-02-18T05:11:28;97938.97;;;4.09;100.00
12146;BME280;6136;47.032;15.398;2023-02-18T05:13:56;97967.69;;;4.14;100.00
12146;BME280;6136;47.032;15.398;2023-02-18T05:16:24;97947.84;;;4.05;100.00
12146;BME280;6136;47.032;15.398;2023-02-18T05:18:54;97960.06;;;4.06;100.00
12146;BME280;6136;47.032;15.398;2023-02-18T05:21:22;97958.34;;;4.05;100.00
12146;BME280;6136;47.032;15.398;2023-02-18T05:23:50;97957.66;;;3.99;100.00
12146;BME280;6136;47.032;15.398;2023-02-18T05:26:18;97967.31;;;3.98;100.00
12146;BME280;6136;47.032;15.398;2023-02-18T05:28:47;97967.38;;;3.95;100.00
12146;BME280;6136;47.032;15.398;2023-02-18T05:31:15;97963.16;;;3.91;100.00
12146;BME280;6136;47.032;15.398;2023-02-18T05:33:43;97964.94;;;3.89;100.00
12146;BME280;6136;47.032;15.398;2023-02-18T05:36:13;97970.97;;;3.93;100.00
12146;BME280;6136;47.032;15.398;2023-02-18T05:38:41;97970.19;;;3.89;100.00
12146;BME280;6136;47.032;15.398;2023-02-18T05:41:09;97975.47;;;3.87;100.00
12146;BME280;6136;47.032;15.398;2023-02-18T05:43:37;97978.41;;;3.77;100.00
12146;BME280;6136;47.032;15.398;2023-02-18T05:46:20;97980.03;;;3.81;100.00
12146;BME280;6136;47.032;15.398;2023-02-18T05:48:48;97987.06;;;3.79;100.00
12146;BME280;6136;47.032;15.398;2023-02-18T05:51:18;97990.38;;;3.85;100.00
12146;BME280;6136;47.032;15.398;2023-02-18T05:53:46;97977.25;;;3.85;100.00
12146;BME280;6136;47.032;15.398;2023-02-18T05:56:14;97984.91;;;3.93;100.00
12146;BME280;6136;47.032;15.398;2023-02-18T05:58:42;97985.00;;;3.90;100.00
12146;BME280;6136;47.032;15.398;2023-02-18T06:01:10;97983.09;;;3.95;100.00
12146;BME280;6136;47.032;15.398;2023-02-18T06:03:38;97983.97;;;3.96;100.00
12146;BME280;6136;47.032;15.398;2023-02-18T06:06:07;97979.59;;;3.96;100.00
12146;BME280;6136;47.032;15.398;2023-02-18T06:08:37;97983.38;;;3.86;100.00
12146;BME280;6136;47.032;15.398;2023-02-18T06:11:05;97991.13;;;3.90;100.00
12146;BME280;6136;47.032;15.398;2023-02-18T06:13:33;97993.00;;;3.85;100.00
12146;BME280;6136;47.032;15.398;2023-02-18T06:16:01;97981.69;;;3.85;100.00
12146;BME280;6136;47.032;15.398;2023-02-18T06:18:30;97981.50;;;3.91;100.00
12146;BME280;6136;47.032;15.398;2023-02-18T06:20:58;98007.25;;;3.77;100.00
12146;BME280;6136;47.032;15.398;2023-02-18T06:23:26;97992.19;;;3.83;100.00
12146;BME280;6136;47.032;15.398;2023-02-18T06:25:56;98006.16;;;3.84;100.00
12146;BME280;6136;47.032;15.398;2023-02-18T06:28:24;97989.56;;;3.83;100.00
12146;BME280;6136;47.032;15.398;2023-02-18T06:30:52;97990.44;;;3.84;100.00
12146;BME280;6136;47.032;15.398;2023-02-18T06:33:20;98015.81;;;3.82;100.00
12146;BME280;6136;47.032;15.398;2023-02-18T06:35:53;97993.84;;;3.86;100.00
12146;BME280;6136;47.032;15.398;2023-02-18T06:38:21;98011.22;;;3.90;100.00
12146;BME280;6136;47.032;15.398;2023-02-18T06:40:49;98015.34;;;3.99;100.00
12146;BME280;6136;47.032;15.398;2023-02-18T06:43:20;98009.97;;;4.03;100.00
12146;BME280;6136;47.032;15.398;2023-02-18T06:45:49;98006.22;;;4.12;100.00
12146;BME280;6136;47.032;15.398;2023-02-18T06:48:17;98022.91;;;4.09;100.00
12146;BME280;6136;47.032;15.398;2023-02-18T06:50:45;98010.41;;;4.17;100.00
12146;BME280;6136;47.032;15.398;2023-02-18T06:53:13;98008.44;;;4.25;100.00
12146;BME280;6136;47.032;15.398;2023-02-18T06:55:42;98011.75;;;4.30;100.00
12146;BME280;6136;47.032;15.398;2023-02-18T06:58:12;98004.63;;;4.36;100.00
12146;BME280;6136;47.032;15.398;2023-02-18T07:00:42;98013.91;;;4.46;100.00
12146;BME280;6136;47.032;15.398;2023-02-18T07:03:10;98013.03;;;4.47;100.00
12146;BME280;6136;47.032;15.398;2023-02-18T07:05:39;98002.03;;;4.62;100.00
12146;BME280;6136;47.032;15.398;2023-02-18T07:08:08;98009.09;;;4.60;100.00
12146;BME280;6136;47.032;15.398;2023-02-18T07:10:36;98011.47;;;4.67;100.00
12146;BME280;6136;47.032;15.398;2023-02-18T07:13:04;97997.16;;;4.78;100.00
12146;BME280;6136;47.032;15.398;2023-02-18T07:15:33;98005.41;;;4.93;100.00
12146;BME280;6136;47.032;15.398;2023-02-18T07:18:02;98006.22;;;4.95;100.00
12146;BME280;6136;47.032;15.398;2023-02-18T07:20:31;98000.47;;;5.11;100.00
12146;BME280;6136;47.032;15.398;2023-02-18T07:22:59;98009.84;;;5.18;100.00
12146;BME280;6136;47.032;15.398;2023-02-18T07:25:27;98010.25;;;5.32;100.00
12146;BME280;6136;47.032;15.398;2023-02-18T07:27:55;98006.19;;;5.71;100.00
12146;BME280;6136;47.032;15.398;2023-02-18T07:30:24;98021.94;;;6.44;100.00
12146;BME280;6136;47.032;15.398;2023-02-18T07:32:52;98011.81;;;6.79;100.00
12146;BME280;6136;47.032;15.398;2023-02-18T07:35:23;98023.56;;;6.70;100.00
12146;BME280;6136;47.032;15.398;2023-02-18T07:37:51;98023.22;;;6.34;100.00
12146;BME280;6136;47.032;15.398;2023-02-18T07:40:20;98022.47;;;6.52;100.00
12146;BME280;6136;47.032;15.398;2023-02-18T07:42:48;98017.44;;;6.70;100.00
12146;BME280;6136;47.032;15.398;2023-02-18T07:45:18;98027.16;;;6.68;100.00
12146;BME280;6136;47.032;15.398;2023-02-18T07:47:46;98033.47;;;6.63;100.00
12146;BME280;6136;47.032;15.398;2023-02-18T07:50:14;98039.84;;;6.80;100.00
12146;BME280;6136;47.032;15.398;2023-02-18T07:52:44;98034.09;;;6.92;100.00
12146;BME280;6136;47.032;15.398;2023-02-18T07:55:12;98041.06;;;7.15;100.00
12146;BME280;6136;47.032;15.398;2023-02-18T07:57:40;98032.25;;;7.16;100.00
12146;BME280;6136;47.032;15.398;2023-02-18T08:00:22;98032.75;;;7.04;100.00
12146;BME280;6136;47.032;15.398;2023-02-18T08:02:51;98036.03;;;7.30;100.00
12146;BME280;6136;47.032;15.398;2023-02-18T08:05:19;98049.09;;;7.33;100.00
12146;BME280;6136;47.032;15.398;2023-02-18T08:07:49;98039.69;;;7.26;100.00
12146;BME280;6136;47.032;15.398;2023-02-18T08:10:20;98035.53;;;7.63;100.00
12146;BME280;6136;47.032;15.398;2023-02-18T08:12:49;98037.09;;;7.67;100.00
12146;BME280;6136;47.032;15.398;2023-02-18T08:15:17;98038.34;;;7.78;100.00
12146;BME280;6136;47.032;15.398;2023-02-18T08:17:48;98043.81;;;7.94;100.00
12146;BME280;6136;47.032;15.398;2023-02-18T08:20:16;98055.97;;;7.78;100.00
12146;BME280;6136;47.032;15.398;2023-02-18T08:22:44;98050.13;;;8.10;100.00
12146;BME280;6136;47.032;15.398;2023-02-18T08:25:14;98055.06;;;8.18;100.00
12146;BME280;6136;47.032;15.398;2023-02-18T08:27:55;98051.28;;;8.24;100.00
12146;BME280;6136;47.032;15.398;2023-02-18T08:30:23;98050.56;;;8.40;100.00
12146;BME280;6136;47.032;15.398;2023-02-18T08:32:52;98043.56;;;8.77;100.00
12146;BME280;6136;47.032;15.398;2023-02-18T08:35:21;98047.31;;;9.09;99.72
12146;BME280;6136;47.032;15.398;2023-02-18T08:37:49;98034.56;;;9.17;98.52
12146;BME280;6136;47.032;15.398;2023-02-18T08:40:21;98046.69;;;9.21;97.09
12146;BME280;6136;47.032;15.398;2023-02-18T08:42:49;98035.91;;;9.43;96.86
12146;BME280;6136;47.032;15.398;2023-02-18T08:45:18;98046.75;;;9.55;94.92
12146;BME280;6136;47.032;15.398;2023-02-18T08:47:46;98036.94;;;9.92;94.47
12146;BME280;6136;47.032;15.398;2023-02-18T08:50:34;98036.78;;;9.78;93.38
12146;BME280;6136;47.032;15.398;2023-02-18T08:53:02;98035.53;;;9.85;94.12
12146;BME280;6136;47.032;15.398;2023-02-18T08:55:33;98045.16;;;10.20;92.09
12146;BME280;6136;47.032;15.398;2023-02-18T08:58:04;98038.19;;;10.35;91.63
12146;BME280;6136;47.032;15.398;2023-02-18T09:00:33;98041.84;;;10.65;88.42
12146;BME280;6136;47.032;15.398;2023-02-18T09:03:02;98039.41;;;10.61;87.39
12146;BME280;6136;47.032;15.398;2023-02-18T09:05:30;98047.94;;;11.28;83.61
12146;BME280;6136;47.032;15.398;2023-02-18T09:07:58;98039.56;;;11.20;82.92
12146;BME280;6136;47.032;15.398;2023-02-18T09:10:27;98034.69;;;11.74;80.20
12146;BME280;6136;47.032;15.398;2023-02-18T09:12:56;98032.22;;;12.29;78.67
12146;BME280;6136;47.032;15.398;2023-02-18T09:15:24;98025.31;;;12.82;74.65
12146;BME280;6136;47.032;15.398;2023-02-18T09:17:53;98022.03;;;13.46;71.99
12146;BME280;6136;47.032;15.398;2023-02-18T09:20:21;98015.06;;;14.09;67.30
12146;BME280;6136;47.032;15.398;2023-02-18T09:22:49;98017.38;;;14.89;62.93
12146;BME280;6136;47.032;15.398;2023-02-18T09:25:17;98011.13;;;15.49;60.58
12146;BME280;6136;47.032;15.398;2023-02-18T09:27:45;98004.56;;;16.23;58.38
12146;BME280;6136;47.032;15.398;2023-02-18T09:30:15;98007.44;;;16.66;56.32
12146;BME280;6136;47.032;15.398;2023-02-18T09:32:43;98017.72;;;17.15;53.07
12146;BME280;6136;47.032;15.398;2023-02-18T09:35:12;98013.66;;;17.32;52.11
12146;BME280;6136;47.032;15.398;2023-02-18T09:37:40;98017.56;;;17.60;50.73
12146;BME280;6136;47.032;15.398;2023-02-18T09:40:19;98017.47;;;18.14;47.73
12146;BME280;6136;47.032;15.398;2023-02-18T09:42:51;98011.03;;;18.77;45.67
12146;BME280;6136;47.032;15.398;2023-02-18T09:45:23;98012.09;;;19.05;45.64
12146;BME280;6136;47.032;15.398;2023-02-18T09:47:52;98004.97;;;19.44;42.83
12146;BME280;6136;47.032;15.398;2023-02-18T09:50:22;98007.56;;;19.65;41.60
12146;BME280;6136;47.032;15.398;2023-02-18T09:52:51;97999.22;;;19.68;42.41
12146;BME280;6136;47.032;15.398;2023-02-18T09:55:22;97997.81;;;19.54;41.81
12146;BME280;6136;47.032;15.398;2023-02-18T09:57:52;98004.44;;;20.08;40.30
12146;BME280;6136;47.032;15.398;2023-02-18T10:00:26;97996.44;;;21.09;38.84
12146;BME280;6136;47.032;15.398;2023-02-18T10:02:57;97981.81;;;21.39;37.97
12146;BME280;6136;47.032;15.398;2023-02-18T10:05:27;97983.81;;;21.73;36.75
12146;BME280;6136;47.032;15.398;2023-02-18T10:08:00;97980.22;;;21.99;37.48
12146;BME280;6136;47.032;15.398;2023-02-18T10:10:36;97982.19;;;21.97;36.11
12146;BME280;6136;47.032;15.398;2023-02-18T10:13:12;97973.19;;;22.92;35.59
12146;BME280;6136;47.032;15.398;2023-02-18T10:15:43;97970.81;;;23.39;34.38
12146;BME280;6136;47.032;15.398;2023-02-18T10:18:21;97960.84;;;21.68;37.12
12146;BME280;6136;47.032;15.398;2023-02-18T10:21:02;97959.50;;;21.19;37.63
12146;BME280;6136;47.032;15.398;2023-02-18T10:23:33;97967.56;;;20.37;38.83
12146;BME280;6136;47.032;15.398;2023-02-18T10:26:06;97963.53;;;20.51;38.86
12146;BME280;6136;47.032;15.398;2023-02-18T10:28:35;97961.78;;;21.14;38.22
12146;BME280;6136;47.032;15.398;2023-02-18T10:31:07;97946.25;;;21.79;37.66
12146;BME280;6136;47.032;15.398;2023-02-18T10:33:43;97945.22;;;22.75;35.21
12146;BME280;6136;47.032;15.398;2023-02-18T10:36:23;97942.94;;;22.89;34.41
12146;BME280;6136;47.032;15.398;2023-02-18T10:39:14;97934.22;;;23.11;33.71
12146;BME280;6136;47.032;15.398;2023-02-18T10:41:53;97933.44;;;23.43;32.93
12146;BME280;6136;47.032;15.398;2023-02-18T10:44:29;97920.69;;;24.57;31.20
12146;BME280;6136;47.032;15.398;2023-02-18T10:47:15;97914.69;;;24.77;30.72
12146;BME280;6136;47.032;15.398;2023-02-18T10:49:56;97917.03;;;24.33;32.12
12146;BME280;6136;47.032;15.398;2023-02-18T10:52:27;97915.31;;;24.41;32.08
12146;BME280;6136;47.032;15.398;2023-02-18T10:55:01;97911.88;;;24.63;31.43
12146;BME280;6136;47.032;15.398;2023-02-18T10:57:31;97904.78;;;25.55;29.77
12146;BME280;6136;47.032;15.398;2023-02-18T11:00:02;97895.91;;;25.38;30.08
12146;BME280;6136;47.032;15.398;2023-02-18T11:02:39;97901.53;;;25.05;30.99
12146;BME280;6136;47.032;15.398;2023-02-18T11:05:17;97882.69;;;24.18;31.93
12146;BME280;6136;47.032;15.398;2023-02-18T11:07:48;97888.34;;;24.55;31.22
12146;BME280;6136;47.032;15.398;2023-02-18T11:10:21;97879.97;;;24.34;31.26
12146;BME280;6136;47.032;15.398;2023-02-18T11:12:55;97874.75;;;24.08;31.38
12146;BME280;6136;47.032;15.398;2023-02-18T11:15:26;97866.03;;;24.84;31.13
12146;BME280;6136;47.032;15.398;2023-02-18T11:17:57;97865.22;;;24.36;31.31
12146;BME280;6136;47.032;15.398;2023-02-18T11:20:39;97861.69;;;24.36;31.25
12146;BME280;6136;47.032;15.398;2023-02-18T11:23:19;97843.94;;;25.49;29.58
12146;BME280;6136;47.032;15.398;2023-02-18T11:25:58;97836.25;;;25.30;30.23
12146;BME280;6136;47.032;15.398;2023-02-18T11:28:32;97835.59;;;25.50;29.94
12146;BME280;6136;47.032;15.398;2023-02-18T11:31:04;97822.31;;;25.56;29.63
12146;BME280;6136;47.032;15.398;2023-02-18T11:33:36;97828.31;;;24.35;32.19
12146;BME280;6136;47.032;15.398;2023-02-18T11:36:16;97818.63;;;25.34;30.38
12146;BME280;6136;47.032;15.398;2023-02-18T11:38:48;97802.34;;;25.34;31.10
12146;BME280;6136;47.032;15.398;2023-02-18T11:41:19;97804.28;;;24.32;32.27
12146;BME280;6136;47.032;15.398;2023-02-18T11:43:49;97791.94;;;23.67;32.77
12146;BME280;6136;47.032;15.398;2023-02-18T11:46:20;97794.56;;;22.69;34.88
12146;BME280;6136;47.032;15.398;2023-02-18T11:48:51;97783.34;;;22.40;35.76
12146;BME280;6136;47.032;15.398;2023-02-18T11:51:23;97784.84;;;23.09;34.29
12146;BME280;6136;47.032;15.398;2023-02-18T11:53:55;97779.00;;;22.63;35.03
12146;BME280;6136;47.032;15.398;2023-02-18T11:56:28;97783.66;;;22.29;36.17
12146;BME280;6136;47.032;15.398;2023-02-18T11:58:57;97767.34;;;22.04;35.86
12146;BME280;6136;47.032;15.398;2023-02-18T12:01:37;97769.63;;;21.91;36.59
12146;BME280;6136;47.032;15.398;2023-02-18T12:04:14;97761.69;;;21.56;37.11
12146;BME280;6136;47.032;15.398;2023-02-18T12:06:51;97750.81;;;22.58;35.70
12146;BME280;6136;47.032;15.398;2023-02-18T12:09:25;97740.34;;;24.15;33.67
12146;BME280;6136;47.032;15.398;2023-02-18T12:11:57;97739.72;;;22.93;35.29
12146;BME280;6136;47.032;15.398;2023-02-18T12:14:28;97740.06;;;23.31;35.06
12146;BME280;6136;47.032;15.398;2023-02-18T12:17:19;97731.25;;;23.29;34.06
12146;BME280;6136;47.032;15.398;2023-02-18T12:20:03;97728.25;;;23.07;34.71
12146;BME280;6136;47.032;15.398;2023-02-18T12:22:41;97720.94;;;22.67;35.73
12146;BME280;6136;47.032;15.398;2023-02-18T12:25:22;97719.69;;;21.95;36.17
12146;BME280;6136;47.032;15.398;2023-02-18T12:28:02;97701.38;;;23.14;34.29
12146;BME280;6136;47.032;15.398;2023-02-18T12:30:49;97698.19;;;22.12;35.61
12146;BME280;6136;47.032;15.398;2023-02-18T12:33:29;97688.00;;;23.20;33.75
12146;BME280;6136;47.032;15.398;2023-02-18T12:36:11;97673.16;;;23.16;33.91
12146;BME280;6136;47.032;15.398;2023-02-18T12:38:55;97680.03;;;23.27;34.80
12146;BME280;6136;47.032;15.398;2023-02-18T12:41:46;97678.72;;;23.23;33.73
12146;BME280;6136;47.032;15.398;2023-02-18T12:44:33;97674.69;;;23.03;34.16
12146;BME280;6136;47.032;15.398;2023-02-18T12:47:17;97679.41;;;23.17;33.80
12146;BME280;6136;47.032;15.398;2023-02-18T12:50:31;97663.31;;;23.40;33.70
12146;BME280;6136;47.032;15.398;2023-02-18T12:53:29;97657.03;;;23.55;33.35
12146;BME280;6136;47.032;15.398;2023-02-18T12:56:14;97656.69;;;23.42;33.81
12146;BME280;6136;47.032;15.398;2023-02-18T12:58:55;97663.50;;;22.41;35.06
12146;BME280;6136;47.032;15.398;2023-02-18T13:01:34;97647.81;;;22.44;34.72
12146;BME280;6136;47.032;15.398;2023-02-18T13:04:26;97659.78;;;21.16;37.49
12146;BME280;6136;47.032;15.398;2023-02-18T13:07:38;97643.44;;;20.66;38.28
12146;BME280;6136;47.032;15.398;2023-02-18T13:13:18;97665.34;;;19.72;40.21
12146;BME280;6136;47.032;15.398;2023-02-18T13:15:49;97644.44;;;19.66;39.83
12146;BME280;6136;47.032;15.398;2023-02-18T13:18:24;97634.84;;;19.82;39.11
12146;BME280;6136;47.032;15.398;2023-02-18T13:20:57;97641.41;;;19.42;39.76
12146;BME280;6136;47.032;15.398;2023-02-18T13:23:29;97639.31;;;18.99;41.14
12146;BME280;6136;47.032;15.398;2023-02-18T13:26:01;97628.38;;;18.73;41.27
12146;BME280;6136;47.032;15.398;2023-02-18T13:28:37;97620.72;;;18.78;41.21
12146;BME280;6136;47.032;15.398;2023-02-18T13:31:21;97618.22;;;18.19;42.66
12146;BME280;6136;47.032;15.398;2023-02-18T13:33:57;97609.47;;;18.07;42.93